sensor_id;sensor_type;location;lat;lon;timestamp;temperature;humidity
5222;DHT22;2630;52.036;8.514;2022-10-16T00:01:26;14.10;99.90
5222;DHT22;2630;52.036;8.514;2022-10-16T00:06:20;14.00;99.90
5222;DHT22;2630;52.036;8.514;2022-10-16T00:08:46;14.00;99.90
5222;DHT22;2630;52.036;8.514;2022-10-16T00:11:13;14.00;99.90
5222;DHT22;2630;52.036;8.514;2022-10-16T00:13:41;14.00;99.90
5222;DHT22;2630;52.036;8.514;2022-10-16T00:16:07;14.00;99.90
5222;DHT22;2630;52.036;8.514;2022-10-16T00:18:33;14.10;99.90
5222;DHT22;2630;52.036;8.514;2022-10-16T00:24:01;14.00;99.90
5222;DHT22;2630;52.036;8.514;2022-10-16T00:26:29;14.10;99.90
5222;DHT22;2630;52.036;8.514;2022-10-16T00:28:55;14.00;99.90
5222;DHT22;2630;52.036;8.514;2022-10-16T00:31:22;14.10;99.90
5222;DHT22;2630;52.036;8.514;2022-10-16T00:36:16;14.00;99.90
5222;DHT22;2630;52.036;8.514;2022-10-16T00:38:42;14.00;99.90
5222;DHT22;2630;52.036;8.514;2022-10-16T00:43:53;13.90;99.90
5222;DHT22;2630;52.036;8.514;2022-10-16T00:46:40;13.90;99.90
5222;DHT22;2630;52.036;8.514;2022-10-16T00:49:10;13.90;99.90
5222;DHT22;2630;52.036;8.514;2022-10-16T00:54:28;13.80;99.90
5222;DHT22;2630;52.036;8.514;2022-10-16T00:56:56;13.80;99.90
5222;DHT22;2630;52.036;8.514;2022-10-16T00:59:32;13.80;99.90
5222;DHT22;2630;52.036;8.514;2022-10-16T01:01:58;13.70;99.90
5222;DHT22;2630;52.036;8.514;2022-10-16T01:04:25;13.70;99.90
5222;DHT22;2630;52.036;8.514;2022-10-16T01:07:06;13.70;99.90
5222;DHT22;2630;52.036;8.514;2022-10-16T01:12:15;13.80;99.90
5222;DHT22;2630;52.036;8.514;2022-10-16T01:17:43;13.70;99.90
5222;DHT22;2630;52.036;8.514;2022-10-16T01:20:17;13.70;99.90
5222;DHT22;2630;52.036;8.514;2022-10-16T01:28:21;13.80;99.90
5222;DHT22;2630;52.036;8.514;2022-10-16T01:30:50;13.80;99.90
5222;DHT22;2630;52.036;8.514;2022-10-16T01:33:24;13.80;99.90
5222;DHT22;2630;52.036;8.514;2022-10-16T01:36:00;13.80;99.90
5222;DHT22;2630;52.036;8.514;2022-10-16T01:38:47;13.80;99.90
5222;DHT22;2630;52.036;8.514;2022-10-16T01:41:19;13.80;99.90
5222;DHT22;2630;52.036;8.514;2022-10-16T01:46:20;13.80;99.90
5222;DHT22;2630;52.036;8.514;2022-10-16T01:48:48;13.80;99.90
5222;DHT22;2630;52.036;8.514;2022-10-16T01:51:16;13.80;99.90
5222;DHT22;2630;52.036;8.514;2022-10-16T01:53:50;13.70;99.90
5222;DHT22;2630;52.036;8.514;2022-10-16T01:56:18;13.70;99.90
5222;DHT22;2630;52.036;8.514;2022-10-16T01:58:52;13.70;99.90
5222;DHT22;2630;52.036;8.514;2022-10-16T02:01:22;13.70;99.90
5222;DHT22;2630;52.036;8.514;2022-10-16T02:03:52;13.70;99.90
5222;DHT22;2630;52.036;8.514;2022-10-16T02:06:18;13.60;99.90
5222;DHT22;2630;52.036;8.514;2022-10-16T02:08:44;13.60;99.90
5222;DHT22;2630;52.036;8.514;2022-10-16T02:11:10;13.60;99.90
5222;DHT22;2630;52.036;8.514;2022-10-16T02:13:55;13.50;99.90
5222;DHT22;2630;52.036;8.514;2022-10-16T02:16:33;13.50;99.90
5222;DHT22;2630;52.036;8.514;2022-10-16T02:18:59;13.50;99.90
5222;DHT22;2630;52.036;8.514;2022-10-16T02:24:28;13.40;99.90
5222;DHT22;2630;52.036;8.514;2022-10-16T02:27:19;13.30;99.90
5222;DHT22;2630;52.036;8.514;2022-10-16T02:29:54;13.30;99.90
5222;DHT22;2630;52.036;8.514;2022-10-16T02:32:24;13.30;99.90
5222;DHT22;2630;52.036;8.514;2022-10-16T02:34:51;13.30;99.90
5222;DHT22;2630;52.036;8.514;2022-10-16T02:37:18;13.30;99.90
5222;DHT22;2630;52.036;8.514;2022-10-16T02:39:44;13.40;99.90
5222;DHT22;2630;52.036;8.514;2022-10-16T02:42:13;13.30;99.90
5222;DHT22;2630;52.036;8.514;2022-10-16T02:44:39;13.40;99.90
5222;DHT22;2630;52.036;8.514;2022-10-16T02:47:05;13.40;99.90
5222;DHT22;2630;52.036;8.514;2022-10-16T02:49:31;13.40;99.90
5222;DHT22;2630;52.036;8.514;2022-10-16T02:51:56;13.30;99.90
5222;DHT22;2630;52.036;8.514;2022-10-16T02:54:22;13.40;99.90
5222;DHT22;2630;52.036;8.514;2022-10-16T02:59:13;13.40;99.90
5222;DHT22;2630;52.036;8.514;2022-10-16T03:04:05;13.40;99.90
5222;DHT22;2630;52.036;8.514;2022-10-16T03:08:56;13.40;99.90
5222;DHT22;2630;52.036;8.514;2022-10-16T03:11:22;13.40;99.90
5222;DHT22;2630;52.036;8.514;2022-10-16T03:18:39;13.40;99.90
5222;DHT22;2630;52.036;8.514;2022-10-16T03:25:57;13.40;99.90
5222;DHT22;2630;52.036;8.514;2022-10-16T03:38:06;13.40;99.90
5222;DHT22;2630;52.036;8.514;2022-10-16T03:42:58;13.30;99.90
5222;DHT22;2630;52.036;8.514;2022-10-16T03:45:24;13.30;99.90
5222;DHT22;2630;52.036;8.514;2022-10-16T03:50:16;13.30;99.90
5222;DHT22;2630;52.036;8.514;2022-10-16T03:52:42;13.40;99.90
5222;DHT22;2630;52.036;8.514;2022-10-16T03:55:07;13.40;99.90
5222;DHT22;2630;52.036;8.514;2022-10-16T04:02:25;13.40;99.90
5222;DHT22;2630;52.036;8.514;2022-10-16T04:07:16;13.40;99.90
5222;DHT22;2630;52.036;8.514;2022-10-16T04:12:08;13.50;99.90
5222;DHT22;2630;52.036;8.514;2022-10-16T04:14:33;13.50;99.90
5222;DHT22;2630;52.036;8.514;2022-10-16T04:19:25;13.50;99.90
5222;DHT22;2630;52.036;8.514;2022-10-16T04:24:17;13.50;99.90
5222;DHT22;2630;52.036;8.514;2022-10-16T04:26:43;13.50;99.90
5222;DHT22;2630;52.036;8.514;2022-10-16T04:34:00;13.50;99.90
5222;DHT22;2630;52.036;8.514;2022-10-16T04:43:44;13.60;99.90
5222;DHT22;2630;52.036;8.514;2022-10-16T04:46:09;13.60;99.90
5222;DHT22;2630;52.036;8.514;2022-10-16T04:48:35;13.60;99.90
5222;DHT22;2630;52.036;8.514;2022-10-16T04:51:01;13.60;99.90
5222;DHT22;2630;52.036;8.514;2022-10-16T04:53:26;13.70;99.90
5222;DHT22;2630;52.036;8.514;2022-10-16T05:00:45;13.70;99.90
5222;DHT22;2630;52.036;8.514;2022-10-16T05:03:12;13.70;99.90
5222;DHT22;2630;52.036;8.514;2022-10-16T05:05:42;13.70;99.90
5222;DHT22;2630;52.036;8.514;2022-10-16T05:08:08;13.70;99.90
5222;DHT22;2630;52.036;8.514;2022-10-16T05:10:34;13.70;99.90
5222;DHT22;2630;52.036;8.514;2022-10-16T05:13:00;13.70;99.90
5222;DHT22;2630;52.036;8.514;2022-10-16T05:17:55;13.70;99.90
5222;DHT22;2630;52.036;8.514;2022-10-16T05:20:21;13.70;99.90
5222;DHT22;2630;52.036;8.514;2022-10-16T05:22:47;13.60;99.90
5222;DHT22;2630;52.036;8.514;2022-10-16T05:25:12;13.60;99.90
5222;DHT22;2630;52.036;8.514;2022-10-16T05:30:04;13.50;99.90
5222;DHT22;2630;52.036;8.514;2022-10-16T05:37:24;13.50;99.90
5222;DHT22;2630;52.036;8.514;2022-10-16T05:44:42;13.50;99.90
5222;DHT22;2630;52.036;8.514;2022-10-16T05:49:33;13.50;99.90
5222;DHT22;2630;52.036;8.514;2022-10-16T05:51:59;13.40;99.90
5222;DHT22;2630;52.036;8.514;2022-10-16T05:59:16;13.50;99.90
5222;DHT22;2630;52.036;8.514;2022-10-16T06:04:08;13.50;99.90
5222;DHT22;2630;52.036;8.514;2022-10-16T06:06:34;13.50;99.90
5222;DHT22;2630;52.036;8.514;2022-10-16T06:09:02;13.50;99.90
5222;DHT22;2630;52.036;8.514;2022-10-16T06:11:29;13.50;99.90
5222;DHT22;2630;52.036;8.514;2022-10-16T06:13:57;13.50;99.90
5222;DHT22;2630;52.036;8.514;2022-10-16T06:16:25;13.60;99.90
5222;DHT22;2630;52.036;8.514;2022-10-16T06:18:51;13.60;99.90
5222;DHT22;2630;52.036;8.514;2022-10-16T06:21:19;13.60;99.90
5222;DHT22;2630;52.036;8.514;2022-10-16T06:23:45;13.60;99.90
5222;DHT22;2630;52.036;8.514;2022-10-16T06:26:14;13.60;99.90
5222;DHT22;2630;52.036;8.514;2022-10-16T06:28:40;13.70;99.90
5222;DHT22;2630;52.036;8.514;2022-10-16T06:31:07;13.70;99.90
5222;DHT22;2630;52.036;8.514;2022-10-16T06:33:33;13.80;99.90
5222;DHT22;2630;52.036;8.514;2022-10-16T06:36:02;13.90;99.90
5222;DHT22;2630;52.036;8.514;2022-10-16T06:38:29;13.90;99.90
5222;DHT22;2630;52.036;8.514;2022-10-16T06:40:55;14.00;99.90
5222;DHT22;2630;52.036;8.514;2022-10-16T06:45:54;14.00;99.90
5222;DHT22;2630;52.036;8.514;2022-10-16T06:48:21;14.00;99.90
5222;DHT22;2630;52.036;8.514;2022-10-16T06:51:03;14.00;99.90
5222;DHT22;2630;52.036;8.514;2022-10-16T06:53:32;13.90;99.90
5222;DHT22;2630;52.036;8.514;2022-10-16T06:58:23;13.90;99.90
5222;DHT22;2630;52.036;8.514;2022-10-16T07:05:47;13.90;99.90
5222;DHT22;2630;52.036;8.514;2022-10-16T07:08:13;13.90;99.90
5222;DHT22;2630;52.036;8.514;2022-10-16T07:10:38;14.00;99.90
5222;DHT22;2630;52.036;8.514;2022-10-16T07:13:04;14.20;99.90
5222;DHT22;2630;52.036;8.514;2022-10-16T07:17:55;14.30;99.90
5222;DHT22;2630;52.036;8.514;2022-10-16T07:20:21;14.40;99.90
5222;DHT22;2630;52.036;8.514;2022-10-16T07:22:46;14.50;99.90
5222;DHT22;2630;52.036;8.514;2022-10-16T07:27:38;14.60;99.90
5222;DHT22;2630;52.036;8.514;2022-10-16T07:30:04;14.70;99.90
5222;DHT22;2630;52.036;8.514;2022-10-16T07:32:31;14.80;99.90
5222;DHT22;2630;52.036;8.514;2022-10-16T07:34:56;14.80;99.90
5222;DHT22;2630;52.036;8.514;2022-10-16T07:47:07;15.50;99.90
5222;DHT22;2630;52.036;8.514;2022-10-16T08:06:36;15.00;99.90
5222;DHT22;2630;52.036;8.514;2022-10-16T08:09:03;15.20;99.90
5222;DHT22;2630;52.036;8.514;2022-10-16T08:11:28;15.30;99.90
5222;DHT22;2630;52.036;8.514;2022-10-16T08:16:20;15.50;99.90
5222;DHT22;2630;52.036;8.514;2022-10-16T08:21:14;15.70;99.90
5222;DHT22;2630;52.036;8.514;2022-10-16T08:23:40;15.70;99.90
5222;DHT22;2630;52.036;8.514;2022-10-16T08:26:07;15.80;99.90
5222;DHT22;2630;52.036;8.514;2022-10-16T08:28:34;15.90;99.90
5222;DHT22;2630;52.036;8.514;2022-10-16T08:31:07;16.00;99.90
5222;DHT22;2630;52.036;8.514;2022-10-16T08:33:33;16.10;99.90
5222;DHT22;2630;52.036;8.514;2022-10-16T08:36:00;16.20;99.90
5222;DHT22;2630;52.036;8.514;2022-10-16T08:38:26;16.30;99.90
5222;DHT22;2630;52.036;8.514;2022-10-16T08:40:58;16.40;99.90
5222;DHT22;2630;52.036;8.514;2022-10-16T08:49:03;16.90;99.90
5222;DHT22;2630;52.036;8.514;2022-10-16T08:51:34;17.10;99.90
5222;DHT22;2630;52.036;8.514;2022-10-16T08:54:19;17.20;99.90
5222;DHT22;2630;52.036;8.514;2022-10-16T08:56:46;17.10;99.90
5222;DHT22;2630;52.036;8.514;2022-10-16T09:04:37;17.50;99.90
5222;DHT22;2630;52.036;8.514;2022-10-16T09:17:40;17.50;99.90
5222;DHT22;2630;52.036;8.514;2022-10-16T09:25:49;17.10;99.90
5222;DHT22;2630;52.036;8.514;2022-10-16T09:28:16;17.10;99.90
5222;DHT22;2630;52.036;8.514;2022-10-16T09:30:43;17.00;99.90
5222;DHT22;2630;52.036;8.514;2022-10-16T09:33:10;17.20;99.90
5222;DHT22;2630;52.036;8.514;2022-10-16T09:35:43;17.30;99.90
5222;DHT22;2630;52.036;8.514;2022-10-16T09:40:46;17.40;99.90
5222;DHT22;2630;52.036;8.514;2022-10-16T09:48:17;17.90;99.90
5222;DHT22;2630;52.036;8.514;2022-10-16T09:53:21;18.30;99.90
5222;DHT22;2630;52.036;8.514;2022-10-16T09:58:21;18.80;99.90
5222;DHT22;2630;52.036;8.514;2022-10-16T10:00:52;19.00;99.90
5222;DHT22;2630;52.036;8.514;2022-10-16T10:03:36;19.40;99.90
5222;DHT22;2630;52.036;8.514;2022-10-16T10:06:13;19.20;99.90
5222;DHT22;2630;52.036;8.514;2022-10-16T10:11:07;19.40;99.90
5222;DHT22;2630;52.036;8.514;2022-10-16T10:13:33;19.10;99.90
5222;DHT22;2630;52.036;8.514;2022-10-16T10:15:58;18.90;99.90
5222;DHT22;2630;52.036;8.514;2022-10-16T10:18:24;19.30;99.90
5222;DHT22;2630;52.036;8.514;2022-10-16T10:21:00;19.80;99.90
5222;DHT22;2630;52.036;8.514;2022-10-16T10:31:54;19.30;99.90
5222;DHT22;2630;52.036;8.514;2022-10-16T10:34:44;18.80;99.90
5222;DHT22;2630;52.036;8.514;2022-10-16T10:38:00;18.60;99.90
5222;DHT22;2630;52.036;8.514;2022-10-16T10:43:24;18.40;99.90
5222;DHT22;2630;52.036;8.514;2022-10-16T11:03:57;19.20;99.90
5222;DHT22;2630;52.036;8.514;2022-10-16T11:06:34;19.00;99.90
5222;DHT22;2630;52.036;8.514;2022-10-16T11:09:38;18.70;99.90
5222;DHT22;2630;52.036;8.514;2022-10-16T11:12:24;18.60;99.90
5222;DHT22;2630;52.036;8.514;2022-10-16T11:15:55;18.60;99.90
5222;DHT22;2630;52.036;8.514;2022-10-16T11:20:26;18.60;99.90
5222;DHT22;2630;52.036;8.514;2022-10-16T11:23:04;18.60;99.90
5222;DHT22;2630;52.036;8.514;2022-10-16T11:25:33;18.40;99.90
5222;DHT22;2630;52.036;8.514;2022-10-16T11:28:11;18.40;99.90
5222;DHT22;2630;52.036;8.514;2022-10-16T11:36:04;18.00;99.90
5222;DHT22;2630;52.036;8.514;2022-10-16T11:39:00;18.10;99.90
5222;DHT22;2630;52.036;8.514;2022-10-16T11:46:38;18.90;99.90
5222;DHT22;2630;52.036;8.514;2022-10-16T11:54:52;19.50;99.90
5222;DHT22;2630;52.036;8.514;2022-10-16T11:57:25;19.70;99.90
5222;DHT22;2630;52.036;8.514;2022-10-16T12:02:54;19.70;99.90
5222;DHT22;2630;52.036;8.514;2022-10-16T12:08:13;19.70;99.90
5222;DHT22;2630;52.036;8.514;2022-10-16T12:10:42;19.60;99.90
5222;DHT22;2630;52.036;8.514;2022-10-16T12:16:21;19.70;99.90
5222;DHT22;2630;52.036;8.514;2022-10-16T12:21:16;19.50;99.90
5222;DHT22;2630;52.036;8.514;2022-10-16T12:23:55;19.30;99.90
5222;DHT22;2630;52.036;8.514;2022-10-16T12:26:29;19.20;99.90
5222;DHT22;2630;52.036;8.514;2022-10-16T12:29:12;19.10;99.90
5222;DHT22;2630;52.036;8.514;2022-10-16T12:31:47;18.90;99.90
5222;DHT22;2630;52.036;8.514;2022-10-16T12:36:48;18.50;99.90
5222;DHT22;2630;52.036;8.514;2022-10-16T12:39:22;18.50;99.90
5222;DHT22;2630;52.036;8.514;2022-10-16T12:42:01;18.50;99.90
5222;DHT22;2630;52.036;8.514;2022-10-16T12:44:32;18.60;99.90
5222;DHT22;2630;52.036;8.514;2022-10-16T12:46:58;18.60;99.90
5222;DHT22;2630;52.036;8.514;2022-10-16T12:51:57;18.70;99.90
5222;DHT22;2630;52.036;8.514;2022-10-16T13:07:53;19.00;99.90
5222;DHT22;2630;52.036;8.514;2022-10-16T13:10:27;19.00;99.90
5222;DHT22;2630;52.036;8.514;2022-10-16T13:18:59;19.00;99.90
5222;DHT22;2630;52.036;8.514;2022-10-16T13:21:35;19.00;99.90
5222;DHT22;2630;52.036;8.514;2022-10-16T13:30:28;19.10;99.90
5222;DHT22;2630;52.036;8.514;2022-10-16T13:33:20;19.20;99.90
5222;DHT22;2630;52.036;8.514;2022-10-16T13:35:49;19.30;99.90
5222;DHT22;2630;52.036;8.514;2022-10-16T13:38:17;19.40;99.90
5222;DHT22;2630;52.036;8.514;2022-10-16T13:43:21;19.60;99.90
5222;DHT22;2630;52.036;8.514;2022-10-16T13:45:59;19.70;99.90
5222;DHT22;2630;52.036;8.514;2022-10-16T13:48:25;19.80;99.90
5222;DHT22;2630;52.036;8.514;2022-10-16T13:51:16;19.90;99.90
5222;DHT22;2630;52.036;8.514;2022-10-16T13:56:14;20.10;99.90
5222;DHT22;2630;52.036;8.514;2022-10-16T13:58:40;20.10;99.90
5222;DHT22;2630;52.036;8.514;2022-10-16T14:01:25;20.00;99.90
5222;DHT22;2630;52.036;8.514;2022-10-16T14:03:51;19.90;99.90
5222;DHT22;2630;52.036;8.514;2022-10-16T14:06:20;19.80;99.90
5222;DHT22;2630;52.036;8.514;2022-10-16T14:08:56;19.60;99.90
5222;DHT22;2630;52.036;8.514;2022-10-16T14:11:23;19.60;99.90
5222;DHT22;2630;52.036;8.514;2022-10-16T14:13:50;19.60;99.90
5222;DHT22;2630;52.036;8.514;2022-10-16T14:16:34;19.60;99.90
5222;DHT22;2630;52.036;8.514;2022-10-16T14:19:02;19.90;99.90
5222;DHT22;2630;52.036;8.514;2022-10-16T14:21:29;20.10;99.90
5222;DHT22;2630;52.036;8.514;2022-10-16T14:23:55;20.30;99.90
5222;DHT22;2630;52.036;8.514;2022-10-16T14:26:27;20.40;99.90
5222;DHT22;2630;52.036;8.514;2022-10-16T14:29:15;20.40;99.90
5222;DHT22;2630;52.036;8.514;2022-10-16T14:31:53;20.30;99.90
5222;DHT22;2630;52.036;8.514;2022-10-16T14:39:23;19.80;99.90
5222;DHT22;2630;52.036;8.514;2022-10-16T14:41:52;19.60;99.90
5222;DHT22;2630;52.036;8.514;2022-10-16T14:44:18;19.50;99.90
5222;DHT22;2630;52.036;8.514;2022-10-16T14:46:44;19.20;99.90
5222;DHT22;2630;52.036;8.514;2022-10-16T14:51:40;18.90;99.90
5222;DHT22;2630;52.036;8.514;2022-10-16T14:54:08;18.80;99.90
5222;DHT22;2630;52.036;8.514;2022-10-16T14:56:58;18.70;99.90
5222;DHT22;2630;52.036;8.514;2022-10-16T14:59:42;18.60;99.90
5222;DHT22;2630;52.036;8.514;2022-10-16T15:02:31;18.50;99.90
5222;DHT22;2630;52.036;8.514;2022-10-16T15:07:23;18.40;99.90
5222;DHT22;2630;52.036;8.514;2022-10-16T15:09:49;18.40;99.90
5222;DHT22;2630;52.036;8.514;2022-10-16T15:12:16;18.50;99.90
5222;DHT22;2630;52.036;8.514;2022-10-16T15:17:11;18.70;99.90
5222;DHT22;2630;52.036;8.514;2022-10-16T15:19:37;18.70;99.90
5222;DHT22;2630;52.036;8.514;2022-10-16T15:24:28;18.60;99.90
5222;DHT22;2630;52.036;8.514;2022-10-16T15:26:54;18.50;99.90
5222;DHT22;2630;52.036;8.514;2022-10-16T15:34:13;18.40;99.90
5222;DHT22;2630;52.036;8.514;2022-10-16T15:36:39;18.30;99.90
5222;DHT22;2630;52.036;8.514;2022-10-16T15:41:31;18.20;99.90
5222;DHT22;2630;52.036;8.514;2022-10-16T15:43:57;18.10;99.90
5222;DHT22;2630;52.036;8.514;2022-10-16T15:46:24;17.90;99.90
5222;DHT22;2630;52.036;8.514;2022-10-16T15:48:51;17.70;99.90
5222;DHT22;2630;52.036;8.514;2022-10-16T15:51:17;17.70;99.90
5222;DHT22;2630;52.036;8.514;2022-10-16T15:53:43;17.50;99.90
5222;DHT22;2630;52.036;8.514;2022-10-16T15:56:12;17.30;99.90
5222;DHT22;2630;52.036;8.514;2022-10-16T15:58:37;17.00;99.90
5222;DHT22;2630;52.036;8.514;2022-10-16T16:01:03;17.10;99.90
5222;DHT22;2630;52.036;8.514;2022-10-16T16:03:30;17.00;99.90
5222;DHT22;2630;52.036;8.514;2022-10-16T16:05:56;16.90;99.90
5222;DHT22;2630;52.036;8.514;2022-10-16T16:08:21;16.90;99.90
5222;DHT22;2630;52.036;8.514;2022-10-16T16:11:00;16.70;99.90
5222;DHT22;2630;52.036;8.514;2022-10-16T16:13:26;16.60;99.90
5222;DHT22;2630;52.036;8.514;2022-10-16T16:15:52;16.70;99.90
5222;DHT22;2630;52.036;8.514;2022-10-16T16:23:10;16.60;99.90
5222;DHT22;2630;52.036;8.514;2022-10-16T16:25:35;16.50;99.90
5222;DHT22;2630;52.036;8.514;2022-10-16T16:28:01;16.30;99.90
5222;DHT22;2630;52.036;8.514;2022-10-16T16:30:27;16.20;99.90
5222;DHT22;2630;52.036;8.514;2022-10-16T16:32:52;16.00;99.90
5222;DHT22;2630;52.036;8.514;2022-10-16T16:35:18;16.10;99.90
5222;DHT22;2630;52.036;8.514;2022-10-16T16:40:09;16.10;99.90
5222;DHT22;2630;52.036;8.514;2022-10-16T16:49:53;15.90;99.90
5222;DHT22;2630;52.036;8.514;2022-10-16T16:52:18;15.90;99.90
5222;DHT22;2630;52.036;8.514;2022-10-16T16:57:17;15.90;99.90
5222;DHT22;2630;52.036;8.514;2022-10-16T16:59:43;15.80;99.90
5222;DHT22;2630;52.036;8.514;2022-10-16T17:02:09;15.90;99.90
5222;DHT22;2630;52.036;8.514;2022-10-16T17:26:33;15.70;99.90
5222;DHT22;2630;52.036;8.514;2022-10-16T17:51:17;14.90;99.90
5222;DHT22;2630;52.036;8.514;2022-10-16T17:53:47;14.60;99.90
5222;DHT22;2630;52.036;8.514;2022-10-16T17:56:13;14.50;99.90
5222;DHT22;2630;52.036;8.514;2022-10-16T17:58:40;14.50;99.90
5222;DHT22;2630;52.036;8.514;2022-10-16T18:01:14;14.50;99.90
5222;DHT22;2630;52.036;8.514;2022-10-16T18:08:32;14.50;99.90
5222;DHT22;2630;52.036;8.514;2022-10-16T18:11:01;14.50;99.90
5222;DHT22;2630;52.036;8.514;2022-10-16T18:13:27;14.50;99.90
5222;DHT22;2630;52.036;8.514;2022-10-16T18:18:35;14.40;99.90
5222;DHT22;2630;52.036;8.514;2022-10-16T18:21:03;14.40;99.90
5222;DHT22;2630;52.036;8.514;2022-10-16T18:23:29;14.40;99.90
5222;DHT22;2630;52.036;8.514;2022-10-16T18:25:55;14.50;99.90
5222;DHT22;2630;52.036;8.514;2022-10-16T18:28:22;14.50;99.90
5222;DHT22;2630;52.036;8.514;2022-10-16T18:30:55;14.50;99.90
5222;DHT22;2630;52.036;8.514;2022-10-16T18:35:47;14.40;99.90
5222;DHT22;2630;52.036;8.514;2022-10-16T18:38:13;14.30;99.90
5222;DHT22;2630;52.036;8.514;2022-10-16T18:40:38;14.30;99.90
5222;DHT22;2630;52.036;8.514;2022-10-16T18:45:30;14.30;99.90
5222;DHT22;2630;52.036;8.514;2022-10-16T18:47:56;14.20;99.90
5222;DHT22;2630;52.036;8.514;2022-10-16T18:50:22;14.00;99.90
5222;DHT22;2630;52.036;8.514;2022-10-16T18:52:48;13.80;99.90
5222;DHT22;2630;52.036;8.514;2022-10-16T18:55:14;13.70;99.90
5222;DHT22;2630;52.036;8.514;2022-10-16T19:02:32;13.70;99.90
5222;DHT22;2630;52.036;8.514;2022-10-16T19:04:58;13.70;99.90
5222;DHT22;2630;52.036;8.514;2022-10-16T19:09:49;13.80;99.90
5222;DHT22;2630;52.036;8.514;2022-10-16T19:12:15;13.90;99.90
5222;DHT22;2630;52.036;8.514;2022-10-16T19:14:41;13.90;99.90
5222;DHT22;2630;52.036;8.514;2022-10-16T19:17:07;13.90;99.90
5222;DHT22;2630;52.036;8.514;2022-10-16T19:19:33;13.90;99.90
5222;DHT22;2630;52.036;8.514;2022-10-16T19:21:58;13.90;99.90
5222;DHT22;2630;52.036;8.514;2022-10-16T19:24:39;13.80;99.90
5222;DHT22;2630;52.036;8.514;2022-10-16T19:27:06;13.80;99.90
5222;DHT22;2630;52.036;8.514;2022-10-16T19:29:31;13.90;99.90
5222;DHT22;2630;52.036;8.514;2022-10-16T19:31:57;14.00;99.90
5222;DHT22;2630;52.036;8.514;2022-10-16T19:34:23;14.00;99.90
5222;DHT22;2630;52.036;8.514;2022-10-16T19:36:52;14.00;99.90
5222;DHT22;2630;52.036;8.514;2022-10-16T19:39:17;14.10;99.90
5222;DHT22;2630;52.036;8.514;2022-10-16T19:41:44;14.00;99.90
5222;DHT22;2630;52.036;8.514;2022-10-16T19:46:39;14.20;99.90
5222;DHT22;2630;52.036;8.514;2022-10-16T19:49:07;14.20;99.90
5222;DHT22;2630;52.036;8.514;2022-10-16T19:54:02;14.30;99.90
5222;DHT22;2630;52.036;8.514;2022-10-16T19:56:29;14.40;99.90
5222;DHT22;2630;52.036;8.514;2022-10-16T20:01:23;14.40;99.90
5222;DHT22;2630;52.036;8.514;2022-10-16T20:03:50;14.40;99.90
5222;DHT22;2630;52.036;8.514;2022-10-16T20:06:17;14.40;99.90
5222;DHT22;2630;52.036;8.514;2022-10-16T20:11:30;14.40;99.90
5222;DHT22;2630;52.036;8.514;2022-10-16T20:13:57;14.40;99.90
5222;DHT22;2630;52.036;8.514;2022-10-16T20:16:24;14.30;99.90
5222;DHT22;2630;52.036;8.514;2022-10-16T20:18:50;14.30;99.90
5222;DHT22;2630;52.036;8.514;2022-10-16T20:28:41;14.30;99.90
5222;DHT22;2630;52.036;8.514;2022-10-16T20:31:09;14.40;99.90
5222;DHT22;2630;52.036;8.514;2022-10-16T20:33:36;14.40;99.90
5222;DHT22;2630;52.036;8.514;2022-10-16T20:36:02;14.40;99.90
5222;DHT22;2630;52.036;8.514;2022-10-16T20:43:28;14.50;99.90
5222;DHT22;2630;52.036;8.514;2022-10-16T20:46:02;14.50;99.90
5222;DHT22;2630;52.036;8.514;2022-10-16T20:48:28;14.60;99.90
5222;DHT22;2630;52.036;8.514;2022-10-16T20:53:20;14.50;99.90
5222;DHT22;2630;52.036;8.514;2022-10-16T20:58:11;14.50;99.90
5222;DHT22;2630;52.036;8.514;2022-10-16T21:05:30;14.50;99.90
5222;DHT22;2630;52.036;8.514;2022-10-16T21:07:58;14.50;99.90
5222;DHT22;2630;52.036;8.514;2022-10-16T21:15:20;14.60;99.90
5222;DHT22;2630;52.036;8.514;2022-10-16T21:17:45;14.60;99.90
5222;DHT22;2630;52.036;8.514;2022-10-16T21:20:11;14.60;99.90
5222;DHT22;2630;52.036;8.514;2022-10-16T21:22:36;14.60;99.90
5222;DHT22;2630;52.036;8.514;2022-10-16T21:37:12;14.70;99.90
5222;DHT22;2630;52.036;8.514;2022-10-16T21:39:38;14.50;99.90
5222;DHT22;2630;52.036;8.514;2022-10-16T21:44:29;14.60;99.90
5222;DHT22;2630;52.036;8.514;2022-10-16T21:49:21;14.60;99.90
5222;DHT22;2630;52.036;8.514;2022-10-16T21:54:19;14.60;99.90
5222;DHT22;2630;52.036;8.514;2022-10-16T21:56:44;14.60;99.90
5222;DHT22;2630;52.036;8.514;2022-10-16T21:59:11;14.60;99.90
5222;DHT22;2630;52.036;8.514;2022-10-16T22:04:04;14.70;99.90
5222;DHT22;2630;52.036;8.514;2022-10-16T22:06:29;14.60;99.90
5222;DHT22;2630;52.036;8.514;2022-10-16T22:08:58;14.50;99.90
5222;DHT22;2630;52.036;8.514;2022-10-16T22:11:30;14.40;99.90
5222;DHT22;2630;52.036;8.514;2022-10-16T22:14:01;14.30;99.90
5222;DHT22;2630;52.036;8.514;2022-10-16T22:16:28;14.30;99.90
5222;DHT22;2630;52.036;8.514;2022-10-16T22:18:54;14.30;99.90
5222;DHT22;2630;52.036;8.514;2022-10-16T22:21:21;14.20;99.90
5222;DHT22;2630;52.036;8.514;2022-10-16T22:23:47;14.30;99.90
5222;DHT22;2630;52.036;8.514;2022-10-16T22:26:13;14.20;99.90
5222;DHT22;2630;52.036;8.514;2022-10-16T22:28:39;14.20;99.90
5222;DHT22;2630;52.036;8.514;2022-10-16T22:33:33;14.20;99.90
5222;DHT22;2630;52.036;8.514;2022-10-16T22:36:03;14.10;99.90
5222;DHT22;2630;52.036;8.514;2022-10-16T22:38:30;14.10;99.90
5222;DHT22;2630;52.036;8.514;2022-10-16T22:41:06;14.00;99.90
5222;DHT22;2630;52.036;8.514;2022-10-16T22:43:37;13.90;99.90
5222;DHT22;2630;52.036;8.514;2022-10-16T22:46:07;13.70;99.90
5222;DHT22;2630;52.036;8.514;2022-10-16T22:48:34;13.70;99.90
5222;DHT22;2630;52.036;8.514;2022-10-16T22:53:26;13.50;99.90
5222;DHT22;2630;52.036;8.514;2022-10-16T22:55:52;13.40;99.90
5222;DHT22;2630;52.036;8.514;2022-10-16T23:00:43;13.40;99.90
5222;DHT22;2630;52.036;8.514;2022-10-16T23:03:10;13.40;99.90
5222;DHT22;2630;52.036;8.514;2022-10-16T23:08:05;13.30;99.90
5222;DHT22;2630;52.036;8.514;2022-10-16T23:10:32;13.40;99.90
5222;DHT22;2630;52.036;8.514;2022-10-16T23:12:57;13.40;99.90
5222;DHT22;2630;52.036;8.514;2022-10-16T23:22:41;13.30;99.90
5222;DHT22;2630;52.036;8.514;2022-10-16T23:25:07;13.30;99.90
5222;DHT22;2630;52.036;8.514;2022-10-16T23:27:33;13.20;99.90
5222;DHT22;2630;52.036;8.514;2022-10-16T23:34:51;13.10;99.90
5222;DHT22;2630;52.036;8.514;2022-10-16T23:37:16;13.00;99.90
5222;DHT22;2630;52.036;8.514;2022-10-16T23:42:08;13.00;99.90
5222;DHT22;2630;52.036;8.514;2022-10-16T23:49:25;12.90;99.90
5222;DHT22;2630;52.036;8.514;2022-10-16T23:56:43;12.70;99.90
